createdAt,value
2023-01-13T00:01:19.633Z,98561.61
2023-01-13T00:03:47.917Z,98562.43
2023-01-13T00:06:18.998Z,98564.05
2023-01-13T00:08:51.421Z,98568.27
2023-01-13T00:11:20.904Z,98565.98
2023-01-13T00:13:48.909Z,98567.91
2023-01-13T00:16:18.603Z,98567.61
2023-01-13T00:18:47.677Z,98560.80
2023-01-13T00:21:18.394Z,98561.14
2023-01-13T00:23:46.416Z,98561.25
2023-01-13T00:26:19.659Z,98561.83
2023-01-13T00:28:48.048Z,98550.64
2023-01-13T00:31:21.191Z,98544.91
2023-01-13T00:33:51.098Z,98541.05
2023-01-13T00:36:20.618Z,98544.02
2023-01-13T00:38:48.763Z,98539.45
2023-01-13T00:41:19.475Z,98539.10
2023-01-13T00:43:48.066Z,98541.02
2023-01-13T00:46:21.225Z,98540.55
2023-01-13T00:48:49.921Z,98537.91
2023-01-13T00:51:20.009Z,98536.27
2023-01-13T00:53:50.785Z,98531.23
2023-01-13T00:56:38.445Z,98525.52
2023-01-13T00:59:11.366Z,98522.38
2023-01-13T01:01:40.345Z,98513.71
2023-01-13T01:04:08.593Z,98510.39
2023-01-13T01:06:36.666Z,98509.81
2023-01-13T01:09:05.696Z,98507.16
2023-01-13T01:11:34.323Z,98506.90
2023-01-13T01:14:04.029Z,98503.13
2023-01-13T01:16:34.009Z,98501.84
2023-01-13T01:19:02.101Z,98502.29
2023-01-13T01:21:30.020Z,98502.73
2023-01-13T01:24:00.929Z,98498.89
2023-01-13T01:26:30.952Z,98496.66
2023-01-13T01:28:59.670Z,98493.70
2023-01-13T01:31:33.006Z,98490.25
2023-01-13T01:34:01.701Z,98486.23
2023-01-13T01:36:34.948Z,98476.23
2023-01-13T01:39:04.178Z,98467.61
2023-01-13T01:41:34.224Z,98458.67
2023-01-13T01:44:23.628Z,98452.58
2023-01-13T01:46:52.283Z,98445.77
2023-01-13T01:49:30.591Z,98446.13
2023-01-13T01:52:01.222Z,98460.42
2023-01-13T01:54:39.559Z,98462.66
2023-01-13T01:57:10.813Z,98461.96
2023-01-13T01:59:39.578Z,98467.33
2023-01-13T02:02:08.695Z,98469.02
2023-01-13T02:04:40.908Z,98469.10
2023-01-13T02:07:09.040Z,98463.70
2023-01-13T02:09:37.017Z,98455.87
2023-01-13T02:12:23.923Z,98452.77
2023-01-13T02:14:51.884Z,98453.20
2023-01-13T02:17:52.008Z,98450.46
2023-01-13T02:20:35.633Z,98448.46
2023-01-13T02:23:41.198Z,98445.13
2023-01-13T02:26:21.589Z,98442.39
2023-01-13T02:29:32.315Z,98444.63
2023-01-13T02:32:08.099Z,98439.86
2023-01-13T02:34:41.989Z,98436.16
2023-01-13T02:37:25.411Z,98431.93
2023-01-13T02:40:01.609Z,98434.41
2023-01-13T02:42:59.006Z,98426.02
2023-01-13T02:45:33.245Z,98426.39
2023-01-13T02:48:05.554Z,98426.38
2023-01-13T02:50:42.167Z,98425.03
2023-01-13T02:53:20.366Z,98427.30
2023-01-13T02:55:51.705Z,98425.55
2023-01-13T02:58:24.256Z,98422.02
2023-01-13T03:00:52.658Z,98421.17
2023-01-13T03:03:20.963Z,98425.27
2023-01-13T03:05:52.867Z,98425.09
2023-01-13T03:08:30.456Z,98425.32
2023-01-13T03:11:11.219Z,98427.33
2023-01-13T03:13:44.861Z,98432.63
2023-01-13T03:16:15.448Z,98439.33
2023-01-13T03:18:55.552Z,98439.96
2023-01-13T03:21:35.175Z,98442.64
2023-01-13T03:24:29.612Z,98440.70
2023-01-13T03:27:20.430Z,98438.26
2023-01-13T03:29:59.758Z,98436.85
2023-01-13T03:32:32.918Z,98428.84
2023-01-13T03:35:16.651Z,98422.73
2023-01-13T03:37:49.069Z,98419.72
2023-01-13T03:40:31.948Z,98417.09
2023-01-13T03:43:30.013Z,98414.42
2023-01-13T03:46:04.370Z,98419.80
2023-01-13T03:48:35.793Z,98419.76
2023-01-13T03:51:07.626Z,98418.83
2023-01-13T03:53:43.370Z,98416.98
2023-01-13T03:56:24.010Z,98413.73
2023-01-13T03:58:53.832Z,98414.16
2023-01-13T04:01:26.763Z,98408.65
2023-01-13T04:04:01.668Z,98405.19
2023-01-13T04:06:50.743Z,98402.48
2023-01-13T04:09:27.679Z,98398.05
2023-01-13T04:12:52.041Z,98393.46
2023-01-13T04:15:23.832Z,98395.02
2023-01-13T04:17:52.035Z,98398.44
2023-01-13T04:20:20.488Z,98396.25
2023-01-13T04:22:48.338Z,98393.86
2023-01-13T04:25:16.381Z,98394.46
2023-01-13T04:27:44.757Z,98393.95
2023-01-13T04:30:12.842Z,98391.54
2023-01-13T04:32:41.383Z,98388.25
2023-01-13T04:35:09.451Z,98390.75
2023-01-13T04:37:37.694Z,98394.52
2023-01-13T04:40:06.336Z,98395.64
2023-01-13T04:42:34.205Z,98401.66
2023-01-13T04:45:02.292Z,98398.02
2023-01-13T04:47:30.168Z,98392.00
2023-01-13T04:49:57.968Z,98392.39
2023-01-13T04:52:25.815Z,98395.15
2023-01-13T04:54:53.624Z,98392.89
2023-01-13T04:57:21.636Z,98394.15
2023-01-13T04:59:49.458Z,98393.95
2023-01-13T05:02:19.929Z,98390.57
2023-01-13T05:04:49.037Z,98394.27
2023-01-13T05:07:17.324Z,98399.01
2023-01-13T05:09:45.170Z,98402.60
2023-01-13T05:12:31.535Z,98401.83
2023-01-13T05:15:18.142Z,98396.79
2023-01-13T05:17:46.218Z,98394.92
2023-01-13T05:20:14.423Z,98397.85
2023-01-13T05:23:01.015Z,98394.72
2023-01-13T05:25:29.202Z,98393.08
2023-01-13T05:27:59.336Z,98396.85
2023-01-13T05:30:30.287Z,98400.54
2023-01-13T05:32:58.566Z,98397.38
2023-01-13T05:35:26.409Z,98398.02
2023-01-13T05:37:54.849Z,98397.05
2023-01-13T05:40:41.551Z,98393.97
2023-01-13T05:43:24.576Z,98398.62
2023-01-13T05:46:08.267Z,98399.02
2023-01-13T05:48:42.160Z,98401.64
2023-01-13T05:51:11.857Z,98399.34
2023-01-13T05:53:42.926Z,98399.04
2023-01-13T05:56:11.189Z,98397.20
2023-01-13T05:58:39.108Z,98397.26
2023-01-13T06:01:08.800Z,98397.16
2023-01-13T06:03:37.051Z,98398.86
2023-01-13T06:06:06.054Z,98398.48
2023-01-13T06:08:33.928Z,98395.77
2023-01-13T06:11:01.797Z,98389.83
2023-01-13T06:13:31.099Z,98391.59
2023-01-13T06:15:59.822Z,98393.56
2023-01-13T06:18:28.583Z,98388.05
2023-01-13T06:20:56.651Z,98386.55
2023-01-13T06:23:24.784Z,98388.54
2023-01-13T06:26:18.292Z,98385.70
2023-01-13T06:28:46.387Z,98386.73
2023-01-13T06:31:14.526Z,98390.25
2023-01-13T06:33:48.894Z,98392.86
2023-01-13T06:36:22.318Z,98387.02
2023-01-13T06:38:54.887Z,98386.79
2023-01-13T06:41:43.625Z,98389.10
2023-01-13T06:44:11.806Z,98384.54
2023-01-13T06:46:39.801Z,98383.23
2023-01-13T06:49:07.849Z,98384.71
2023-01-13T06:51:35.751Z,98381.94
2023-01-13T06:54:04.200Z,98381.77
2023-01-13T06:56:32.109Z,98380.07
2023-01-13T06:58:59.963Z,98381.87
2023-01-13T07:01:28.069Z,98380.15
2023-01-13T07:03:56.187Z,98385.58
2023-01-13T07:06:24.642Z,98385.51
2023-01-13T07:08:52.420Z,98382.25
2023-01-13T07:11:20.233Z,98390.39
2023-01-13T07:14:06.604Z,98389.26
2023-01-13T07:16:34.450Z,98389.41
2023-01-13T07:19:02.366Z,98390.65
2023-01-13T07:21:30.220Z,98396.04
2023-01-13T07:23:58.096Z,98396.69
2023-01-13T07:26:26.036Z,98393.05
2023-01-13T07:28:53.958Z,98391.67
2023-01-13T07:31:22.127Z,98387.85
2023-01-13T07:33:50.006Z,98392.60
2023-01-13T07:36:17.875Z,98392.40
2023-01-13T07:38:45.748Z,98390.11
2023-01-13T07:41:33.652Z,98392.94
2023-01-13T07:44:05.086Z,98396.14
2023-01-13T07:46:33.794Z,98392.11
2023-01-13T07:49:01.649Z,98390.48
2023-01-13T07:51:29.802Z,98390.39
2023-01-13T07:53:57.952Z,98394.19
2023-01-13T07:56:25.862Z,98392.99
2023-01-13T07:58:53.680Z,98389.55
2023-01-13T08:01:21.697Z,98391.92
2023-01-13T08:03:49.663Z,98390.23
2023-01-13T08:06:17.532Z,98389.75
2023-01-13T08:08:45.401Z,98389.92
2023-01-13T08:11:13.607Z,98394.77
2023-01-13T08:13:41.429Z,98394.60
2023-01-13T08:16:11.837Z,98393.08
2023-01-13T08:18:40.415Z,98392.58
2023-01-13T08:21:11.645Z,98396.38
2023-01-13T08:23:41.275Z,98396.06
2023-01-13T08:26:12.627Z,98399.41
2023-01-13T08:28:40.815Z,98404.09
2023-01-13T08:31:12.442Z,98403.98
2023-01-13T08:33:40.574Z,98406.36
2023-01-13T08:36:10.869Z,98411.61
2023-01-13T08:38:39.104Z,98405.46
2023-01-13T08:41:12.632Z,98405.63
2023-01-13T08:43:40.541Z,98407.00
2023-01-13T08:46:08.835Z,98412.19
2023-01-13T08:48:36.739Z,98412.77
2023-01-13T08:51:06.818Z,98423.03
2023-01-13T08:53:34.921Z,98420.14
2023-01-13T08:56:07.675Z,98420.32
2023-01-13T08:58:35.632Z,98422.54
2023-01-13T09:01:07.581Z,98419.70
2023-01-13T09:03:35.612Z,98417.84
2023-01-13T09:06:03.729Z,98421.89
2023-01-13T09:08:31.597Z,98422.71
2023-01-13T09:10:59.727Z,98425.23
2023-01-13T09:13:27.576Z,98425.52
2023-01-13T09:15:56.859Z,98431.27
2023-01-13T09:18:24.937Z,98430.20
2023-01-13T09:20:52.838Z,98436.23
2023-01-13T09:23:20.774Z,98438.21
2023-01-13T09:25:49.316Z,98438.50
2023-01-13T09:28:17.207Z,98434.54
2023-01-13T09:30:45.063Z,98429.29
2023-01-13T09:33:31.698Z,98419.66
2023-01-13T09:36:01.113Z,98415.67
2023-01-13T09:38:29.205Z,98415.91
2023-01-13T09:40:57.049Z,98412.41
2023-01-13T09:43:56.510Z,98408.02
2023-01-13T09:47:00.418Z,98403.96
2023-01-13T09:49:36.945Z,98399.86
2023-01-13T09:52:10.252Z,98399.16
2023-01-13T09:54:45.634Z,98403.09
2023-01-13T09:57:19.323Z,98399.11
2023-01-13T09:59:47.325Z,98398.25
2023-01-13T10:02:53.765Z,98397.16
2023-01-13T10:05:39.632Z,98390.09
2023-01-13T10:08:35.488Z,98380.57
2023-01-13T10:11:34.681Z,98378.42
2023-01-13T10:14:13.594Z,98382.16
2023-01-13T10:16:49.313Z,98376.30
2023-01-13T10:19:31.305Z,98379.35
2023-01-13T10:22:15.212Z,98385.71
2023-01-13T10:24:49.038Z,98382.17
2023-01-13T10:27:23.760Z,98383.67
2023-01-13T10:29:51.549Z,98380.48
2023-01-13T10:32:19.349Z,98381.87
2023-01-13T10:34:56.585Z,98384.19
2023-01-13T10:37:27.210Z,98383.14
2023-01-13T10:39:57.112Z,98387.17
2023-01-13T10:42:25.460Z,98385.06
2023-01-13T10:44:58.587Z,98382.08
2023-01-13T10:47:37.147Z,98386.25
2023-01-13T10:50:11.025Z,98391.14
2023-01-13T10:52:43.386Z,98388.66
2023-01-13T10:55:33.517Z,98388.86
2023-01-13T10:58:14.349Z,98389.50
2023-01-13T11:00:42.374Z,98387.13
2023-01-13T11:03:16.667Z,98377.86
2023-01-13T11:05:53.854Z,98381.95
2023-01-13T11:08:41.588Z,98382.36
2023-01-13T11:11:27.651Z,98376.36
2023-01-13T11:14:19.531Z,98372.33
2023-01-13T11:16:53.975Z,98371.27
2023-01-13T11:19:27.551Z,98366.95
2023-01-13T11:22:07.057Z,98373.33
2023-01-13T11:24:40.201Z,98377.01
2023-01-13T11:27:26.042Z,98373.52
2023-01-13T11:30:30.873Z,98366.29
2023-01-13T11:33:22.575Z,98369.77
2023-01-13T11:36:31.044Z,98373.27
2023-01-13T11:39:05.468Z,98375.48
2023-01-13T11:41:42.129Z,98373.66
2023-01-13T11:44:09.918Z,98372.43
2023-01-13T11:46:38.703Z,98376.22
2023-01-13T11:49:07.073Z,98375.52
2023-01-13T11:51:42.604Z,98377.32
2023-01-13T11:54:13.237Z,98379.73
2023-01-13T11:56:56.416Z,98379.25
2023-01-13T11:59:57.463Z,98374.04
2023-01-13T12:02:34.446Z,98374.54
2023-01-13T12:05:29.604Z,98374.23
2023-01-13T12:08:00.684Z,98373.48
2023-01-13T12:10:46.995Z,98366.42
2023-01-13T12:13:29.654Z,98363.55
2023-01-13T12:16:21.324Z,98364.96
2023-01-13T12:19:15.592Z,98360.80
2023-01-13T12:21:46.441Z,98348.53
2023-01-13T12:24:25.627Z,98342.81
2023-01-13T12:27:04.798Z,98342.38
2023-01-13T12:29:37.854Z,98342.33
2023-01-13T12:32:13.004Z,98344.55
2023-01-13T12:34:52.421Z,98341.84
2023-01-13T12:37:35.448Z,98341.33
2023-01-13T12:40:21.865Z,98346.14
2023-01-13T12:43:23.021Z,98347.70
2023-01-13T12:45:50.954Z,98353.56
2023-01-13T12:48:46.720Z,98358.87
2023-01-13T12:51:25.331Z,98359.89
2023-01-13T12:53:54.818Z,98363.64
2023-01-13T12:56:29.397Z,98366.48
2023-01-13T12:59:19.393Z,98369.52
2023-01-13T13:01:50.041Z,98368.77
2023-01-13T13:04:20.880Z,98363.80
2023-01-13T13:07:04.711Z,98368.18
2023-01-13T13:09:37.076Z,98367.42
2023-01-13T13:12:51.694Z,98367.91
2023-01-13T13:15:21.944Z,98378.77
2023-01-13T13:17:58.950Z,98384.85
2023-01-13T13:21:06.158Z,98385.27
2023-01-13T13:24:03.046Z,98388.40
2023-01-13T13:26:39.663Z,98383.66
2023-01-13T13:29:19.722Z,98388.77
2023-01-13T13:32:13.786Z,98390.23
2023-01-13T13:35:03.002Z,98396.83
2023-01-13T13:37:33.843Z,98402.50
2023-01-13T13:40:29.030Z,98407.45
2023-01-13T13:43:16.222Z,98405.17
2023-01-13T13:46:11.663Z,98412.32
2023-01-13T13:48:39.547Z,98413.10
2023-01-13T13:51:22.483Z,98415.89
2023-01-13T13:53:50.818Z,98415.19
2023-01-13T13:56:22.923Z,98416.05
2023-01-13T13:58:52.313Z,98412.35
2023-01-13T14:01:35.307Z,98416.11
2023-01-13T14:04:25.853Z,98423.27
2023-01-13T14:07:01.924Z,98432.98
2023-01-13T14:09:41.506Z,98437.67
2023-01-13T14:12:18.848Z,98435.01
2023-01-13T14:14:49.064Z,98432.71
2023-01-13T14:17:29.729Z,98445.23
2023-01-13T14:20:07.975Z,98461.32
2023-01-13T14:22:36.177Z,98474.63
2023-01-13T14:25:26.916Z,98481.51
2023-01-13T14:27:56.383Z,98479.73
2023-01-13T14:30:26.932Z,98470.31
2023-01-13T14:32:56.312Z,98452.88
2023-01-13T14:35:24.280Z,98459.86
2023-01-13T14:38:01.511Z,98465.87
2023-01-13T14:40:44.518Z,98473.14
2023-01-13T14:43:15.889Z,98473.88
2023-01-13T14:45:56.625Z,98477.86
2023-01-13T14:48:33.376Z,98478.36
2023-01-13T14:51:05.771Z,98480.66
2023-01-13T14:53:47.121Z,98484.69
2023-01-13T14:56:37.927Z,98487.27
2023-01-13T14:59:34.816Z,98481.34
2023-01-13T15:02:25.310Z,98481.20
2023-01-13T15:04:58.847Z,98485.33
2023-01-13T15:07:31.871Z,98481.54
2023-01-13T15:10:02.689Z,98472.45
2023-01-13T15:12:36.271Z,98466.74
2023-01-13T15:15:19.735Z,98464.80
2023-01-13T15:17:47.549Z,98467.42
2023-01-13T15:20:22.437Z,98465.63
2023-01-13T15:22:51.132Z,98463.70
2023-01-13T15:25:20.132Z,98466.33
2023-01-13T15:27:51.706Z,98469.08
2023-01-13T15:30:26.124Z,98475.96
2023-01-13T15:32:55.385Z,98484.30
2023-01-13T15:35:25.462Z,98492.09
2023-01-13T15:37:55.616Z,98494.17
2023-01-13T15:40:25.131Z,98495.14
2023-01-13T15:43:11.388Z,98498.27
2023-01-13T15:45:59.013Z,98499.41
2023-01-13T15:48:29.488Z,98508.11
2023-01-13T15:50:57.598Z,98514.20
2023-01-13T15:53:26.549Z,98509.30
2023-01-13T15:55:57.284Z,98510.38
2023-01-13T15:58:28.398Z,98510.98
2023-01-13T16:00:56.502Z,98513.27
2023-01-13T16:03:24.407Z,98519.05
2023-01-13T16:05:52.186Z,98518.33
2023-01-13T16:08:22.906Z,98522.41
2023-01-13T16:10:50.813Z,98526.40
2023-01-13T16:13:18.642Z,98522.58
2023-01-13T16:15:49.679Z,98524.33
2023-01-13T16:18:20.005Z,98519.44
2023-01-13T16:20:47.971Z,98523.83
2023-01-13T16:23:15.847Z,98529.23
2023-01-13T16:25:46.574Z,98529.38
2023-01-13T16:28:28.081Z,98534.26
2023-01-13T16:30:55.939Z,98537.73
2023-01-13T16:33:23.768Z,98538.95
2023-01-13T16:36:10.429Z,98541.19
2023-01-13T16:38:42.003Z,98541.65
2023-01-13T16:41:10.274Z,98543.92
2023-01-13T16:43:38.545Z,98547.06
2023-01-13T16:46:18.545Z,98547.90
2023-01-13T16:48:46.915Z,98558.59
2023-01-13T16:51:15.157Z,98569.38
2023-01-13T16:53:43.147Z,98568.13
2023-01-13T16:56:20.887Z,98568.63
2023-01-13T16:58:49.557Z,98572.11
2023-01-13T17:01:32.305Z,98580.04
2023-01-13T17:04:00.396Z,98582.23
2023-01-13T17:06:38.871Z,98581.46
2023-01-13T17:09:14.597Z,98588.25
2023-01-13T17:11:42.932Z,98596.23
2023-01-13T17:14:19.245Z,98595.84
2023-01-13T17:16:47.716Z,98597.09
2023-01-13T17:19:16.294Z,98597.96
2023-01-13T17:21:44.263Z,98602.71
2023-01-13T17:24:12.410Z,98595.08
2023-01-13T17:26:43.935Z,98590.91
2023-01-13T17:29:14.584Z,98595.67
2023-01-13T17:31:42.718Z,98596.63
2023-01-13T17:34:11.968Z,98599.79
2023-01-13T17:36:40.260Z,98600.68
2023-01-13T17:39:09.595Z,98610.65
2023-01-13T17:41:37.381Z,98610.95
2023-01-13T17:44:05.210Z,98616.00
2023-01-13T17:46:32.989Z,98616.62
2023-01-13T17:49:00.874Z,98623.83
2023-01-13T17:51:28.723Z,98631.50
2023-01-13T17:53:56.797Z,98632.42
2023-01-13T17:56:25.284Z,98631.53
2023-01-13T17:58:53.137Z,98630.11
2023-01-13T18:01:22.515Z,98634.79
2023-01-13T18:03:50.657Z,98635.87
2023-01-13T18:06:23.049Z,98640.33
2023-01-13T18:08:51.204Z,98641.98
2023-01-13T18:11:22.001Z,98643.59
2023-01-13T18:13:55.117Z,98647.92
2023-01-13T18:16:24.444Z,98649.83
2023-01-13T18:18:53.062Z,98655.31
2023-01-13T18:21:44.544Z,98656.75
2023-01-13T18:24:33.296Z,98660.09
2023-01-13T18:27:23.069Z,98662.40
2023-01-13T18:29:53.087Z,98661.55
2023-01-13T18:32:22.583Z,98666.95
2023-01-13T18:35:01.568Z,98669.73
2023-01-13T18:37:35.948Z,98668.13
2023-01-13T18:40:05.447Z,98665.33
2023-01-13T18:42:51.822Z,98666.46
2023-01-13T18:45:26.131Z,98663.91
2023-01-13T18:47:55.281Z,98656.23
2023-01-13T18:50:23.830Z,98661.31
2023-01-13T18:52:52.125Z,98664.81
2023-01-13T18:55:20.591Z,98668.63
2023-01-13T18:57:48.741Z,98672.75
2023-01-13T19:00:20.052Z,98673.61
2023-01-13T19:02:50.714Z,98676.42
2023-01-13T19:05:18.709Z,98675.89
2023-01-13T19:07:50.954Z,98678.67
2023-01-13T19:10:19.242Z,98678.84
2023-01-13T19:12:47.108Z,98680.95
2023-01-13T19:15:15.126Z,98685.81
2023-01-13T19:17:44.996Z,98686.98
2023-01-13T19:20:13.096Z,98685.85
2023-01-13T19:22:40.998Z,98690.23
2023-01-13T19:25:08.941Z,98702.06
2023-01-13T19:27:37.197Z,98702.02
2023-01-13T19:30:06.038Z,98705.50
2023-01-13T19:32:33.892Z,98707.73
2023-01-13T19:35:01.842Z,98710.59
2023-01-13T19:37:31.424Z,98713.69
2023-01-13T19:39:59.855Z,98721.34
2023-01-13T19:42:46.454Z,98732.45
2023-01-13T19:45:28.254Z,98739.75
2023-01-13T19:47:58.181Z,98740.88
2023-01-13T19:50:26.240Z,98739.67
2023-01-13T19:52:54.069Z,98741.44
2023-01-13T19:55:22.278Z,98741.96
2023-01-13T19:57:50.477Z,98745.98
2023-01-13T20:00:20.937Z,98749.55
2023-01-13T20:02:49.985Z,98757.69
2023-01-13T20:05:25.652Z,98761.05
2023-01-13T20:07:54.076Z,98759.61
2023-01-13T20:10:23.054Z,98762.70
2023-01-13T20:12:51.321Z,98769.41
2023-01-13T20:15:19.138Z,98775.18
2023-01-13T20:17:47.916Z,98778.39
2023-01-13T20:20:16.867Z,98784.89
2023-01-13T20:22:44.789Z,98787.45
2023-01-13T20:25:16.758Z,98787.36
2023-01-13T20:27:46.267Z,98795.08
2023-01-13T20:30:14.715Z,98803.83
2023-01-13T20:32:43.446Z,98801.09
2023-01-13T20:35:15.954Z,98803.74
2023-01-13T20:37:44.158Z,98806.75
2023-01-13T20:40:15.498Z,98802.12
2023-01-13T20:42:46.376Z,98800.30
2023-01-13T20:45:18.133Z,98800.55
2023-01-13T20:47:46.443Z,98798.35
2023-01-13T20:50:15.622Z,98800.14
2023-01-13T20:52:44.524Z,98797.17
2023-01-13T20:55:13.084Z,98794.83
2023-01-13T20:57:41.862Z,98795.30
2023-01-13T21:00:10.620Z,98795.17
2023-01-13T21:02:40.119Z,98796.42
2023-01-13T21:05:09.252Z,98799.25
2023-01-13T21:07:37.124Z,98803.16
2023-01-13T21:10:05.293Z,98802.17
2023-01-13T21:12:51.674Z,98806.67
2023-01-13T21:15:22.823Z,98804.31
2023-01-13T21:18:10.137Z,98804.41
2023-01-13T21:20:39.452Z,98809.35
2023-01-13T21:23:08.192Z,98808.85
2023-01-13T21:25:39.431Z,98807.91
2023-01-13T21:28:10.235Z,98803.36
2023-01-13T21:30:39.082Z,98800.08
2023-01-13T21:33:07.199Z,98801.48
2023-01-13T21:35:38.096Z,98802.34
2023-01-13T21:38:05.927Z,98808.59
2023-01-13T21:40:33.853Z,98806.09
2023-01-13T21:43:20.000Z,98805.27
2023-01-13T21:46:06.512Z,98807.89
2023-01-13T21:48:34.351Z,98804.67
2023-01-13T21:51:02.259Z,98809.79
2023-01-13T21:53:30.122Z,98809.83
2023-01-13T21:55:58.079Z,98817.68
2023-01-13T21:58:25.940Z,98820.86
2023-01-13T22:00:54.160Z,98824.06
2023-01-13T22:03:22.315Z,98829.18
2023-01-13T22:05:54.974Z,98831.79
2023-01-13T22:08:22.811Z,98831.31
2023-01-13T22:11:00.228Z,98833.41
2023-01-13T22:14:00.361Z,98840.85
2023-01-13T22:16:28.292Z,98836.79
2023-01-13T22:18:56.150Z,98836.94
2023-01-13T22:21:23.954Z,98840.02
2023-01-13T22:23:51.898Z,98850.27
2023-01-13T22:26:19.801Z,98851.78
2023-01-13T22:28:47.699Z,98854.54
2023-01-13T22:31:18.581Z,98865.89
2023-01-13T22:33:47.226Z,98865.00
2023-01-13T22:36:15.669Z,98866.85
2023-01-13T22:38:43.543Z,98868.88
2023-01-13T22:41:11.581Z,98874.90
2023-01-13T22:43:39.954Z,98879.55
2023-01-13T22:46:12.660Z,98883.89
2023-01-13T22:48:41.182Z,98887.55
2023-01-13T22:51:11.475Z,98885.13
2023-01-13T22:53:40.402Z,98885.81
2023-01-13T22:56:11.637Z,98887.14
2023-01-13T22:58:39.451Z,98890.60
2023-01-13T23:01:12.872Z,98890.23
2023-01-13T23:03:41.972Z,98888.95
2023-01-13T23:06:09.899Z,98890.64
2023-01-13T23:08:37.737Z,98884.66
2023-01-13T23:11:08.352Z,98883.42
2023-01-13T23:13:38.094Z,98887.89
2023-01-13T23:16:11.590Z,98886.96
2023-01-13T23:18:42.516Z,98887.23
2023-01-13T23:21:13.150Z,98892.54
2023-01-13T23:23:41.914Z,98899.02
2023-01-13T23:26:16.440Z,98895.39
2023-01-13T23:28:44.859Z,98898.27
2023-01-13T23:31:21.393Z,98893.96
2023-01-13T23:33:49.494Z,98892.45
2023-01-13T23:36:20.832Z,98896.50
2023-01-13T23:38:49.140Z,98891.86
2023-01-13T23:41:30.893Z,98891.58
2023-01-13T23:44:00.888Z,98886.02
2023-01-13T23:46:30.739Z,98886.73
2023-01-13T23:48:58.721Z,98888.26
2023-01-13T23:51:27.583Z,98889.82
2023-01-13T23:53:56.383Z,98895.95
2023-01-13T23:56:28.029Z,98897.02
2023-01-13T23:58:56.329Z,98899.34
